sensor_id;sensor_type;location;lat;lon;timestamp;noise_LAeq;noise_LA_min;noise_LA_max;noise_LA01;noise_LA95
74470;Laerm;62918;55.706;37.816;2024-01-27T00:00:02;49.10;45.47;55.44;;
74470;Laerm;62918;55.706;37.816;2024-01-27T00:00:33;48.94;46.00;51.89;;
74470;Laerm;62918;55.706;37.816;2024-01-27T00:01:04;49.46;45.67;53.60;;
74470;Laerm;62918;55.706;37.816;2024-01-27T00:01:35;50.52;44.80;55.98;;
74470;Laerm;62918;55.706;37.816;2024-01-27T00:02:05;55.92;45.10;61.42;;
74470;Laerm;62918;55.706;37.816;2024-01-27T00:02:36;53.06;44.35;61.76;;
74470;Laerm;62918;55.706;37.816;2024-01-27T00:03:06;52.47;44.76;58.25;;
74470;Laerm;62918;55.706;37.816;2024-01-27T00:03:37;54.50;47.98;61.98;;
74470;Laerm;62918;55.706;37.816;2024-01-27T00:04:08;56.31;50.70;61.67;;
74470;Laerm;62918;55.706;37.816;2024-01-27T00:04:38;51.78;49.33;54.04;;
74470;Laerm;62918;55.706;37.816;2024-01-27T00:05:09;58.81;49.07;70.82;;
74470;Laerm;62918;55.706;37.816;2024-01-27T00:05:39;56.88;43.48;65.47;;
74470;Laerm;62918;55.706;37.816;2024-01-27T00:06:10;53.08;44.39;58.94;;
74470;Laerm;62918;55.706;37.816;2024-01-27T00:06:41;55.84;48.16;62.60;;
74470;Laerm;62918;55.706;37.816;2024-01-27T00:07:11;48.17;44.12;54.22;;
74470;Laerm;62918;55.706;37.816;2024-01-27T00:07:42;47.01;44.26;50.75;;
74470;Laerm;62918;55.706;37.816;2024-01-27T00:08:13;54.56;45.57;62.11;;
74470;Laerm;62918;55.706;37.816;2024-01-27T00:08:43;48.91;45.52;54.63;;
74470;Laerm;62918;55.706;37.816;2024-01-27T00:09:14;49.24;45.84;54.89;;
74470;Laerm;62918;55.706;37.816;2024-01-27T00:09:44;52.15;45.51;58.63;;
74470;Laerm;62918;55.706;37.816;2024-01-27T00:10:16;45.71;42.31;49.38;;
74470;Laerm;62918;55.706;37.816;2024-01-27T00:10:48;49.80;42.70;56.32;;
74470;Laerm;62918;55.706;37.816;2024-01-27T00:11:19;47.56;42.11;55.05;;
74470;Laerm;62918;55.706;37.816;2024-01-27T00:11:49;49.67;44.14;56.51;;
74470;Laerm;62918;55.706;37.816;2024-01-27T00:12:20;51.15;46.17;64.77;;
74470;Laerm;62918;55.706;37.816;2024-01-27T00:12:51;50.42;46.10;55.63;;
74470;Laerm;62918;55.706;37.816;2024-01-27T00:13:22;58.54;46.41;73.39;;
74470;Laerm;62918;55.706;37.816;2024-01-27T00:13:52;49.44;43.54;61.01;;
74470;Laerm;62918;55.706;37.816;2024-01-27T00:14:23;47.54;43.36;54.75;;
74470;Laerm;62918;55.706;37.816;2024-01-27T00:14:54;50.46;43.49;56.31;;
74470;Laerm;62918;55.706;37.816;2024-01-27T00:15:24;46.79;42.36;50.93;;
74470;Laerm;62918;55.706;37.816;2024-01-27T00:15:55;56.46;47.15;64.39;;
74470;Laerm;62918;55.706;37.816;2024-01-27T00:16:26;56.13;47.26;64.91;;
74470;Laerm;62918;55.706;37.816;2024-01-27T00:16:56;57.71;47.93;76.59;;
74470;Laerm;62918;55.706;37.816;2024-01-27T00:17:27;49.14;44.73;55.41;;
74470;Laerm;62918;55.706;37.816;2024-01-27T00:17:58;51.54;44.98;57.66;;
74470;Laerm;62918;55.706;37.816;2024-01-27T00:18:28;49.85;43.89;59.50;;
74470;Laerm;62918;55.706;37.816;2024-01-27T00:18:59;48.47;43.46;53.60;;
74470;Laerm;62918;55.706;37.816;2024-01-27T00:19:29;49.55;43.85;58.17;;
74470;Laerm;62918;55.706;37.816;2024-01-27T00:20:00;55.72;47.52;60.98;;
74470;Laerm;62918;55.706;37.816;2024-01-27T00:20:31;55.30;48.67;64.98;;
74470;Laerm;62918;55.706;37.816;2024-01-27T00:21:01;52.52;46.91;58.11;;
74470;Laerm;62918;55.706;37.816;2024-01-27T00:21:32;57.09;42.53;67.40;;
74470;Laerm;62918;55.706;37.816;2024-01-27T00:22:03;56.12;42.50;67.81;;
74470;Laerm;62918;55.706;37.816;2024-01-27T00:22:33;46.15;42.83;52.12;;
74470;Laerm;62918;55.706;37.816;2024-01-27T00:23:04;54.19;44.16;61.28;;
74470;Laerm;62918;55.706;37.816;2024-01-27T00:23:35;53.86;48.61;57.77;;
74470;Laerm;62918;55.706;37.816;2024-01-27T00:24:05;54.83;46.05;63.95;;
74470;Laerm;62918;55.706;37.816;2024-01-27T00:24:36;46.87;42.13;51.63;;
74470;Laerm;62918;55.706;37.816;2024-01-27T00:25:07;52.04;42.62;62.36;;
74470;Laerm;62918;55.706;37.816;2024-01-27T00:25:38;55.36;45.81;60.43;;
74470;Laerm;62918;55.706;37.816;2024-01-27T00:26:08;49.39;45.74;53.29;;
74470;Laerm;62918;55.706;37.816;2024-01-27T00:26:39;55.16;46.16;64.27;;
74470;Laerm;62918;55.706;37.816;2024-01-27T00:27:10;50.33;43.35;56.15;;
74470;Laerm;62918;55.706;37.816;2024-01-27T00:27:41;48.54;44.46;52.28;;
74470;Laerm;62918;55.706;37.816;2024-01-27T00:28:11;50.36;42.75;56.18;;
74470;Laerm;62918;55.706;37.816;2024-01-27T00:28:42;49.16;42.75;55.78;;
74470;Laerm;62918;55.706;37.816;2024-01-27T00:29:13;60.89;48.91;67.84;;
74470;Laerm;62918;55.706;37.816;2024-01-27T00:29:43;57.83;44.45;65.14;;
74470;Laerm;62918;55.706;37.816;2024-01-27T00:30:14;53.86;46.40;59.95;;
74470;Laerm;62918;55.706;37.816;2024-01-27T00:30:45;45.99;42.71;51.43;;
74470;Laerm;62918;55.706;37.816;2024-01-27T00:31:15;49.86;44.72;58.40;;
74470;Laerm;62918;55.706;37.816;2024-01-27T00:31:46;50.29;44.96;57.76;;
74470;Laerm;62918;55.706;37.816;2024-01-27T00:32:16;51.09;45.35;58.55;;
74470;Laerm;62918;55.706;37.816;2024-01-27T00:32:47;49.21;43.45;54.86;;
74470;Laerm;62918;55.706;37.816;2024-01-27T00:33:18;46.13;43.23;53.96;;
74470;Laerm;62918;55.706;37.816;2024-01-27T00:33:48;47.69;44.00;51.66;;
74470;Laerm;62918;55.706;37.816;2024-01-27T00:34:19;55.22;44.75;62.75;;
74470;Laerm;62918;55.706;37.816;2024-01-27T00:34:49;53.81;49.70;58.26;;
74470;Laerm;62918;55.706;37.816;2024-01-27T00:35:20;66.76;49.36;77.30;;
74470;Laerm;62918;55.706;37.816;2024-01-27T00:35:51;52.59;45.71;62.45;;
74470;Laerm;62918;55.706;37.816;2024-01-27T00:36:22;53.72;46.15;62.53;;
74470;Laerm;62918;55.706;37.816;2024-01-27T00:36:52;53.84;46.74;61.15;;
74470;Laerm;62918;55.706;37.816;2024-01-27T00:37:23;50.88;45.65;58.22;;
74470;Laerm;62918;55.706;37.816;2024-01-27T00:37:53;48.52;45.13;53.88;;
74470;Laerm;62918;55.706;37.816;2024-01-27T00:38:24;51.55;45.40;58.49;;
74470;Laerm;62918;55.706;37.816;2024-01-27T00:38:54;55.10;48.65;60.30;;
74470;Laerm;62918;55.706;37.816;2024-01-27T00:39:25;53.17;43.90;60.55;;
74470;Laerm;62918;55.706;37.816;2024-01-27T00:39:55;53.47;49.16;57.13;;
74470;Laerm;62918;55.706;37.816;2024-01-27T00:40:26;48.60;43.08;55.55;;
74470;Laerm;62918;55.706;37.816;2024-01-27T00:40:57;53.09;42.56;60.31;;
74470;Laerm;62918;55.706;37.816;2024-01-27T00:41:27;51.22;44.31;56.40;;
74470;Laerm;62918;55.706;37.816;2024-01-27T00:41:58;46.26;43.34;50.19;;
74470;Laerm;62918;55.706;37.816;2024-01-27T00:42:29;51.17;46.66;54.99;;
74470;Laerm;62918;55.706;37.816;2024-01-27T00:43:02;51.55;45.38;59.26;;
74470;Laerm;62918;55.706;37.816;2024-01-27T00:43:33;54.02;45.57;61.40;;
74470;Laerm;62918;55.706;37.816;2024-01-27T00:44:04;49.79;43.92;55.43;;
74470;Laerm;62918;55.706;37.816;2024-01-27T00:44:34;53.32;47.35;58.18;;
74470;Laerm;62918;55.706;37.816;2024-01-27T00:45:07;52.32;44.99;61.17;;
74470;Laerm;62918;55.706;37.816;2024-01-27T00:45:38;61.74;51.20;71.08;;
74470;Laerm;62918;55.706;37.816;2024-01-27T00:46:09;50.63;42.57;63.53;;
74470;Laerm;62918;55.706;37.816;2024-01-27T00:46:39;49.74;42.44;56.52;;
74470;Laerm;62918;55.706;37.816;2024-01-27T00:47:10;51.06;44.90;60.53;;
74470;Laerm;62918;55.706;37.816;2024-01-27T00:47:41;50.70;43.39;57.99;;
74470;Laerm;62918;55.706;37.816;2024-01-27T00:48:11;52.53;45.05;67.55;;
74470;Laerm;62918;55.706;37.816;2024-01-27T00:48:42;54.02;45.03;62.51;;
74470;Laerm;62918;55.706;37.816;2024-01-27T00:49:12;52.36;43.28;60.88;;
74470;Laerm;62918;55.706;37.816;2024-01-27T00:49:43;46.57;42.99;49.85;;
74470;Laerm;62918;55.706;37.816;2024-01-27T00:50:13;45.73;42.42;50.03;;
74470;Laerm;62918;55.706;37.816;2024-01-27T00:50:44;49.02;43.93;57.55;;
74470;Laerm;62918;55.706;37.816;2024-01-27T00:51:15;56.09;43.76;64.75;;
74470;Laerm;62918;55.706;37.816;2024-01-27T00:51:45;50.28;44.69;54.17;;
74470;Laerm;62918;55.706;37.816;2024-01-27T00:52:16;52.64;47.94;56.69;;
74470;Laerm;62918;55.706;37.816;2024-01-27T00:52:46;49.53;46.21;54.00;;
74470;Laerm;62918;55.706;37.816;2024-01-27T00:53:17;50.07;45.62;54.98;;
74470;Laerm;62918;55.706;37.816;2024-01-27T00:53:48;47.99;44.83;51.53;;
74470;Laerm;62918;55.706;37.816;2024-01-27T00:54:18;55.38;44.39;63.10;;
74470;Laerm;62918;55.706;37.816;2024-01-27T00:54:49;56.97;47.62;65.05;;
74470;Laerm;62918;55.706;37.816;2024-01-27T00:55:20;52.70;46.53;58.37;;
74470;Laerm;62918;55.706;37.816;2024-01-27T00:55:50;54.63;47.23;61.90;;
74470;Laerm;62918;55.706;37.816;2024-01-27T00:56:21;56.00;46.40;65.63;;
74470;Laerm;62918;55.706;37.816;2024-01-27T00:56:52;52.22;46.62;57.83;;
74470;Laerm;62918;55.706;37.816;2024-01-27T00:57:23;58.90;47.54;64.81;;
74470;Laerm;62918;55.706;37.816;2024-01-27T00:57:53;59.52;50.95;66.30;;
74470;Laerm;62918;55.706;37.816;2024-01-27T00:58:24;50.06;45.43;55.33;;
74470;Laerm;62918;55.706;37.816;2024-01-27T00:58:54;46.49;43.53;50.38;;
74470;Laerm;62918;55.706;37.816;2024-01-27T00:59:25;51.11;45.16;58.29;;
74470;Laerm;62918;55.706;37.816;2024-01-27T00:59:55;50.83;44.99;59.11;;
74470;Laerm;62918;55.706;37.816;2024-01-27T01:00:26;47.34;43.86;53.35;;
74470;Laerm;62918;55.706;37.816;2024-01-27T01:00:57;58.67;48.80;68.60;;
74470;Laerm;62918;55.706;37.816;2024-01-27T01:01:28;52.15;44.79;58.85;;
74470;Laerm;62918;55.706;37.816;2024-01-27T01:01:59;54.90;46.55;62.65;;
74470;Laerm;62918;55.706;37.816;2024-01-27T01:02:29;50.11;44.44;55.97;;
74470;Laerm;62918;55.706;37.816;2024-01-27T01:03:00;46.41;43.49;49.13;;
74470;Laerm;62918;55.706;37.816;2024-01-27T01:03:30;47.49;44.18;50.16;;
74470;Laerm;62918;55.706;37.816;2024-01-27T01:04:01;52.69;45.81;59.80;;
74470;Laerm;62918;55.706;37.816;2024-01-27T01:04:32;49.48;45.17;55.66;;
74470;Laerm;62918;55.706;37.816;2024-01-27T01:05:03;54.35;47.36;60.18;;
74470;Laerm;62918;55.706;37.816;2024-01-27T01:05:35;50.79;46.43;53.98;;
74470;Laerm;62918;55.706;37.816;2024-01-27T01:06:06;53.54;47.72;60.82;;
74470;Laerm;62918;55.706;37.816;2024-01-27T01:06:39;48.06;43.95;55.18;;
74470;Laerm;62918;55.706;37.816;2024-01-27T01:07:09;47.35;44.56;52.22;;
74470;Laerm;62918;55.706;37.816;2024-01-27T01:07:40;56.69;45.47;66.69;;
74470;Laerm;62918;55.706;37.816;2024-01-27T01:08:10;55.25;44.21;63.75;;
74470;Laerm;62918;55.706;37.816;2024-01-27T01:08:41;46.30;43.59;53.07;;
74470;Laerm;62918;55.706;37.816;2024-01-27T01:09:11;46.65;44.02;51.33;;
74470;Laerm;62918;55.706;37.816;2024-01-27T01:09:42;46.96;44.48;50.12;;
74470;Laerm;62918;55.706;37.816;2024-01-27T01:10:12;51.66;44.95;58.46;;
74470;Laerm;62918;55.706;37.816;2024-01-27T01:10:43;49.34;44.42;59.78;;
74470;Laerm;62918;55.706;37.816;2024-01-27T01:11:14;50.80;43.55;59.58;;
74470;Laerm;62918;55.706;37.816;2024-01-27T01:11:45;46.36;43.95;49.93;;
74470;Laerm;62918;55.706;37.816;2024-01-27T01:12:15;47.42;44.23;53.52;;
74470;Laerm;62918;55.706;37.816;2024-01-27T01:12:46;51.47;46.21;57.25;;
74470;Laerm;62918;55.706;37.816;2024-01-27T01:13:17;53.80;46.01;61.16;;
74470;Laerm;62918;55.706;37.816;2024-01-27T01:13:47;48.73;44.74;57.94;;
74470;Laerm;62918;55.706;37.816;2024-01-27T01:14:18;50.39;46.86;55.98;;
74470;Laerm;62918;55.706;37.816;2024-01-27T01:14:48;51.89;47.65;57.37;;
74470;Laerm;62918;55.706;37.816;2024-01-27T01:15:19;54.07;48.62;62.06;;
74470;Laerm;62918;55.706;37.816;2024-01-27T01:15:49;51.14;44.83;57.17;;
74470;Laerm;62918;55.706;37.816;2024-01-27T01:16:20;47.02;43.11;52.97;;
74470;Laerm;62918;55.706;37.816;2024-01-27T01:16:50;46.53;43.44;48.87;;
74470;Laerm;62918;55.706;37.816;2024-01-27T01:17:21;57.88;44.42;69.02;;
74470;Laerm;62918;55.706;37.816;2024-01-27T01:17:52;53.77;44.69;59.18;;
74470;Laerm;62918;55.706;37.816;2024-01-27T01:18:23;49.05;45.19;54.57;;
74470;Laerm;62918;55.706;37.816;2024-01-27T01:18:53;50.85;47.55;54.82;;
74470;Laerm;62918;55.706;37.816;2024-01-27T01:19:24;49.07;46.26;52.47;;
74470;Laerm;62918;55.706;37.816;2024-01-27T01:19:54;48.85;45.35;54.68;;
74470;Laerm;62918;55.706;37.816;2024-01-27T01:20:25;52.25;47.06;58.89;;
74470;Laerm;62918;55.706;37.816;2024-01-27T01:21:00;57.11;47.70;62.28;;
74470;Laerm;62918;55.706;37.816;2024-01-27T01:21:30;52.02;46.18;57.83;;
74470;Laerm;62918;55.706;37.816;2024-01-27T01:22:01;55.63;47.91;64.87;;
74470;Laerm;62918;55.706;37.816;2024-01-27T01:22:32;50.06;44.05;65.49;;
74470;Laerm;62918;55.706;37.816;2024-01-27T01:23:02;73.54;43.99;88.65;;
74470;Laerm;62918;55.706;37.816;2024-01-27T01:23:33;63.98;43.55;75.98;;
74470;Laerm;62918;55.706;37.816;2024-01-27T01:24:03;50.57;43.39;58.19;;
74470;Laerm;62918;55.706;37.816;2024-01-27T01:24:34;48.63;43.27;55.37;;
74470;Laerm;62918;55.706;37.816;2024-01-27T01:25:05;48.47;45.09;54.63;;
74470;Laerm;62918;55.706;37.816;2024-01-27T01:25:36;47.67;43.58;52.39;;
74470;Laerm;62918;55.706;37.816;2024-01-27T01:26:06;47.01;43.57;54.03;;
74470;Laerm;62918;55.706;37.816;2024-01-27T01:26:37;46.00;42.32;50.76;;
74470;Laerm;62918;55.706;37.816;2024-01-27T01:27:07;54.04;47.56;59.34;;
74470;Laerm;62918;55.706;37.816;2024-01-27T01:27:38;46.65;43.07;52.57;;
74470;Laerm;62918;55.706;37.816;2024-01-27T01:28:09;48.43;43.41;53.96;;
74470;Laerm;62918;55.706;37.816;2024-01-27T01:28:40;48.02;44.60;53.01;;
74470;Laerm;62918;55.706;37.816;2024-01-27T01:29:10;46.91;43.64;51.02;;
74470;Laerm;62918;55.706;37.816;2024-01-27T01:29:41;55.30;43.54;63.43;;
74470;Laerm;62918;55.706;37.816;2024-01-27T01:30:11;56.14;51.51;66.03;;
74470;Laerm;62918;55.706;37.816;2024-01-27T01:30:42;58.75;49.54;68.85;;
74470;Laerm;62918;55.706;37.816;2024-01-27T01:31:12;52.85;42.49;60.13;;
74470;Laerm;62918;55.706;37.816;2024-01-27T01:31:43;57.38;43.90;64.83;;
74470;Laerm;62918;55.706;37.816;2024-01-27T01:32:13;49.31;43.00;61.66;;
74470;Laerm;62918;55.706;37.816;2024-01-27T01:32:45;48.22;43.44;56.84;;
74470;Laerm;62918;55.706;37.816;2024-01-27T01:33:16;57.45;44.44;65.18;;
74470;Laerm;62918;55.706;37.816;2024-01-27T01:33:46;50.41;43.11;60.36;;
74470;Laerm;62918;55.706;37.816;2024-01-27T01:34:17;45.17;41.66;48.02;;
74470;Laerm;62918;55.706;37.816;2024-01-27T01:34:48;45.74;42.55;49.08;;
74470;Laerm;62918;55.706;37.816;2024-01-27T01:35:18;50.90;44.27;56.09;;
74470;Laerm;62918;55.706;37.816;2024-01-27T01:35:49;51.24;44.89;58.93;;
74470;Laerm;62918;55.706;37.816;2024-01-27T01:36:19;50.90;45.24;59.53;;
74470;Laerm;62918;55.706;37.816;2024-01-27T01:36:50;57.05;44.95;64.55;;
74470;Laerm;62918;55.706;37.816;2024-01-27T01:37:21;53.93;44.24;63.13;;
74470;Laerm;62918;55.706;37.816;2024-01-27T01:37:51;46.92;44.07;53.34;;
74470;Laerm;62918;55.706;37.816;2024-01-27T01:38:22;51.27;44.11;63.64;;
74470;Laerm;62918;55.706;37.816;2024-01-27T01:38:52;60.18;43.33;67.01;;
74470;Laerm;62918;55.706;37.816;2024-01-27T01:39:23;48.75;44.11;67.24;;
74470;Laerm;62918;55.706;37.816;2024-01-27T01:39:53;48.16;43.29;62.19;;
74470;Laerm;62918;55.706;37.816;2024-01-27T01:40:24;51.01;43.41;60.24;;
74470;Laerm;62918;55.706;37.816;2024-01-27T01:40:55;53.28;43.65;65.10;;
74470;Laerm;62918;55.706;37.816;2024-01-27T01:41:25;55.65;45.58;63.92;;
74470;Laerm;62918;55.706;37.816;2024-01-27T01:41:56;50.43;45.58;57.43;;
74470;Laerm;62918;55.706;37.816;2024-01-27T01:42:26;51.06;43.94;56.66;;
74470;Laerm;62918;55.706;37.816;2024-01-27T01:42:58;54.07;44.23;61.35;;
74470;Laerm;62918;55.706;37.816;2024-01-27T01:43:29;54.27;44.97;59.82;;
74470;Laerm;62918;55.706;37.816;2024-01-27T01:43:59;58.00;44.90;67.00;;
74470;Laerm;62918;55.706;37.816;2024-01-27T01:44:30;57.47;49.37;65.05;;
74470;Laerm;62918;55.706;37.816;2024-01-27T01:45:05;53.94;48.72;58.06;;
74470;Laerm;62918;55.706;37.816;2024-01-27T01:45:35;55.48;51.20;62.40;;
74470;Laerm;62918;55.706;37.816;2024-01-27T01:46:06;57.90;48.31;66.48;;
74470;Laerm;62918;55.706;37.816;2024-01-27T01:46:37;60.83;47.40;74.85;;
74470;Laerm;62918;55.706;37.816;2024-01-27T01:47:08;57.09;44.54;69.52;;
74470;Laerm;62918;55.706;37.816;2024-01-27T01:47:38;53.56;44.53;60.66;;
74470;Laerm;62918;55.706;37.816;2024-01-27T01:48:09;46.78;43.93;51.14;;
74470;Laerm;62918;55.706;37.816;2024-01-27T01:48:40;51.00;44.95;56.74;;
74470;Laerm;62918;55.706;37.816;2024-01-27T01:49:10;55.19;47.95;63.38;;
74470;Laerm;62918;55.706;37.816;2024-01-27T01:49:41;53.06;44.83;64.52;;
74470;Laerm;62918;55.706;37.816;2024-01-27T01:50:12;46.67;43.77;51.75;;
74470;Laerm;62918;55.706;37.816;2024-01-27T01:50:43;48.49;44.72;56.75;;
74470;Laerm;62918;55.706;37.816;2024-01-27T01:51:13;54.12;46.26;65.39;;
74470;Laerm;62918;55.706;37.816;2024-01-27T01:51:44;46.70;43.67;52.71;;
74470;Laerm;62918;55.706;37.816;2024-01-27T01:52:15;46.67;43.34;53.85;;
74470;Laerm;62918;55.706;37.816;2024-01-27T01:52:51;50.72;45.29;54.86;;
74470;Laerm;62918;55.706;37.816;2024-01-27T01:53:23;50.65;46.10;54.06;;
74470;Laerm;62918;55.706;37.816;2024-01-27T01:53:57;60.81;50.40;69.03;;
74470;Laerm;62918;55.706;37.816;2024-01-27T01:54:28;56.60;46.16;64.28;;
74470;Laerm;62918;55.706;37.816;2024-01-27T01:55:01;55.22;46.62;64.62;;
74470;Laerm;62918;55.706;37.816;2024-01-27T01:55:31;53.36;48.23;59.13;;
74470;Laerm;62918;55.706;37.816;2024-01-27T01:56:02;50.26;44.68;56.31;;
74470;Laerm;62918;55.706;37.816;2024-01-27T01:56:35;51.08;46.97;57.30;;
74470;Laerm;62918;55.706;37.816;2024-01-27T01:57:06;47.33;43.59;55.29;;
74470;Laerm;62918;55.706;37.816;2024-01-27T01:57:37;48.16;44.28;55.75;;
74470;Laerm;62918;55.706;37.816;2024-01-27T01:58:08;50.79;44.84;56.53;;
74470;Laerm;62918;55.706;37.816;2024-01-27T01:58:38;56.74;50.25;61.81;;
74470;Laerm;62918;55.706;37.816;2024-01-27T01:59:09;62.95;53.23;69.60;;
74470;Laerm;62918;55.706;37.816;2024-01-27T01:59:40;52.20;45.57;57.07;;
74470;Laerm;62918;55.706;37.816;2024-01-27T02:00:12;48.68;43.96;52.35;;
74470;Laerm;62918;55.706;37.816;2024-01-27T02:00:43;46.53;43.23;54.95;;
74470;Laerm;62918;55.706;37.816;2024-01-27T02:01:17;52.45;43.90;60.59;;
74470;Laerm;62918;55.706;37.816;2024-01-27T02:01:47;47.77;43.96;50.84;;
74470;Laerm;62918;55.706;37.816;2024-01-27T02:02:18;48.19;43.53;58.48;;
74470;Laerm;62918;55.706;37.816;2024-01-27T02:02:48;49.48;44.09;54.67;;
74470;Laerm;62918;55.706;37.816;2024-01-27T02:03:19;60.51;45.39;72.68;;
74470;Laerm;62918;55.706;37.816;2024-01-27T02:03:59;49.57;43.92;57.08;;
74470;Laerm;62918;55.706;37.816;2024-01-27T02:04:39;51.72;45.53;57.48;;
74470;Laerm;62918;55.706;37.816;2024-01-27T02:05:10;53.96;47.31;60.67;;
74470;Laerm;62918;55.706;37.816;2024-01-27T02:05:41;54.11;48.72;62.86;;
74470;Laerm;62918;55.706;37.816;2024-01-27T02:06:11;54.06;46.99;61.41;;
74470;Laerm;62918;55.706;37.816;2024-01-27T02:06:42;51.80;46.92;55.97;;
74470;Laerm;62918;55.706;37.816;2024-01-27T02:07:13;53.40;44.63;58.64;;
74470;Laerm;62918;55.706;37.816;2024-01-27T02:07:44;48.45;43.55;55.93;;
74470;Laerm;62918;55.706;37.816;2024-01-27T02:08:15;54.67;46.06;63.51;;
74470;Laerm;62918;55.706;37.816;2024-01-27T02:08:45;49.37;43.91;55.80;;
74470;Laerm;62918;55.706;37.816;2024-01-27T02:09:16;47.32;44.16;52.96;;
74470;Laerm;62918;55.706;37.816;2024-01-27T02:09:46;47.50;44.11;51.72;;
74470;Laerm;62918;55.706;37.816;2024-01-27T02:10:17;56.63;47.97;72.71;;
74470;Laerm;62918;55.706;37.816;2024-01-27T02:10:48;53.14;47.41;59.68;;
74470;Laerm;62918;55.706;37.816;2024-01-27T02:11:19;55.59;47.89;61.50;;
74470;Laerm;62918;55.706;37.816;2024-01-27T02:11:50;55.04;48.48;61.61;;
74470;Laerm;62918;55.706;37.816;2024-01-27T02:12:20;54.43;49.83;59.22;;
74470;Laerm;62918;55.706;37.816;2024-01-27T02:12:51;58.93;48.06;69.36;;
74470;Laerm;62918;55.706;37.816;2024-01-27T02:13:22;63.08;52.25;73.94;;
74470;Laerm;62918;55.706;37.816;2024-01-27T02:13:56;52.16;47.09;64.05;;
74470;Laerm;62918;55.706;37.816;2024-01-27T02:14:26;59.04;46.22;65.37;;
74470;Laerm;62918;55.706;37.816;2024-01-27T02:14:57;51.75;45.22;59.24;;
74470;Laerm;62918;55.706;37.816;2024-01-27T02:15:28;56.07;48.82;61.49;;
74470;Laerm;62918;55.706;37.816;2024-01-27T02:15:59;53.22;48.16;58.05;;
74470;Laerm;62918;55.706;37.816;2024-01-27T02:16:29;56.39;50.51;64.93;;
74470;Laerm;62918;55.706;37.816;2024-01-27T02:17:00;59.84;47.96;79.29;;
74470;Laerm;62918;55.706;37.816;2024-01-27T02:17:31;60.82;51.68;70.81;;
74470;Laerm;62918;55.706;37.816;2024-01-27T02:18:01;59.86;55.79;64.10;;
74470;Laerm;62918;55.706;37.816;2024-01-27T02:18:32;59.94;56.14;63.82;;
74470;Laerm;62918;55.706;37.816;2024-01-27T02:19:02;55.75;51.21;66.55;;
74470;Laerm;62918;55.706;37.816;2024-01-27T02:19:33;52.91;45.91;58.95;;
74470;Laerm;62918;55.706;37.816;2024-01-27T02:20:05;49.84;46.30;54.58;;
74470;Laerm;62918;55.706;37.816;2024-01-27T02:20:36;61.92;47.01;70.77;;
74470;Laerm;62918;55.706;37.816;2024-01-27T02:21:09;54.74;46.71;61.10;;
74470;Laerm;62918;55.706;37.816;2024-01-27T02:21:40;55.78;48.04;61.62;;
74470;Laerm;62918;55.706;37.816;2024-01-27T02:22:11;59.38;53.20;63.86;;
74470;Laerm;62918;55.706;37.816;2024-01-27T02:22:41;58.69;55.11;63.47;;
74470;Laerm;62918;55.706;37.816;2024-01-27T02:23:12;59.66;55.69;64.99;;
74470;Laerm;62918;55.706;37.816;2024-01-27T02:23:42;61.75;57.09;65.61;;
74470;Laerm;62918;55.706;37.816;2024-01-27T02:24:13;61.44;55.24;76.03;;
74470;Laerm;62918;55.706;37.816;2024-01-27T02:24:43;60.67;53.19;76.63;;
74470;Laerm;62918;55.706;37.816;2024-01-27T02:25:14;60.26;52.64;77.57;;
74470;Laerm;62918;55.706;37.816;2024-01-27T02:25:45;57.60;51.08;71.53;;
74470;Laerm;62918;55.706;37.816;2024-01-27T02:26:15;57.22;48.47;71.58;;
74470;Laerm;62918;55.706;37.816;2024-01-27T02:26:46;53.44;46.74;65.38;;
74470;Laerm;62918;55.706;37.816;2024-01-27T02:27:16;54.05;46.95;66.68;;
74470;Laerm;62918;55.706;37.816;2024-01-27T02:27:47;58.74;52.18;74.70;;
74470;Laerm;62918;55.706;37.816;2024-01-27T02:28:18;58.94;51.72;70.06;;
74470;Laerm;62918;55.706;37.816;2024-01-27T02:28:49;58.58;53.34;68.58;;
74470;Laerm;62918;55.706;37.816;2024-01-27T02:29:19;60.98;56.74;67.05;;
74470;Laerm;62918;55.706;37.816;2024-01-27T02:29:50;59.51;54.26;70.84;;
74470;Laerm;62918;55.706;37.816;2024-01-27T02:30:20;67.47;56.46;78.10;;
74470;Laerm;62918;55.706;37.816;2024-01-27T02:30:51;71.10;59.05;76.64;;
74470;Laerm;62918;55.706;37.816;2024-01-27T02:31:21;69.52;60.59;77.01;;
74470;Laerm;62918;55.706;37.816;2024-01-27T02:31:52;68.16;59.05;77.30;;
74470;Laerm;62918;55.706;37.816;2024-01-27T02:32:23;74.61;67.81;79.70;;
74470;Laerm;62918;55.706;37.816;2024-01-27T02:32:55;69.29;63.15;74.74;;
74470;Laerm;62918;55.706;37.816;2024-01-27T02:33:25;60.62;53.74;71.24;;
74470;Laerm;62918;55.706;37.816;2024-01-27T02:33:56;58.57;50.41;69.85;;
74470;Laerm;62918;55.706;37.816;2024-01-27T02:34:27;56.03;47.53;70.55;;
74470;Laerm;62918;55.706;37.816;2024-01-27T02:34:57;56.50;47.46;68.37;;
74470;Laerm;62918;55.706;37.816;2024-01-27T02:35:28;58.04;50.08;72.39;;
74470;Laerm;62918;55.706;37.816;2024-01-27T02:35:58;57.99;50.37;65.95;;
74470;Laerm;62918;55.706;37.816;2024-01-27T02:36:29;58.42;49.41;76.83;;
74470;Laerm;62918;55.706;37.816;2024-01-27T02:36:59;55.19;48.15;68.79;;
74470;Laerm;62918;55.706;37.816;2024-01-27T02:37:30;53.34;46.89;65.89;;
74470;Laerm;62918;55.706;37.816;2024-01-27T02:38:01;57.14;51.51;61.36;;
74470;Laerm;62918;55.706;37.816;2024-01-27T02:38:32;66.48;55.06;71.11;;
74470;Laerm;62918;55.706;37.816;2024-01-27T02:39:02;63.28;55.85;68.97;;
74470;Laerm;62918;55.706;37.816;2024-01-27T02:39:33;54.56;49.48;60.27;;
74470;Laerm;62918;55.706;37.816;2024-01-27T02:40:04;53.84;48.59;61.81;;
74470;Laerm;62918;55.706;37.816;2024-01-27T02:40:36;57.45;53.35;64.28;;
74470;Laerm;62918;55.706;37.816;2024-01-27T02:41:06;53.05;49.66;59.27;;
74470;Laerm;62918;55.706;37.816;2024-01-27T02:41:37;53.37;48.83;63.14;;
74470;Laerm;62918;55.706;37.816;2024-01-27T02:42:09;57.69;48.18;69.86;;
74470;Laerm;62918;55.706;37.816;2024-01-27T02:42:39;57.64;50.43;67.75;;
74470;Laerm;62918;55.706;37.816;2024-01-27T02:43:12;57.01;52.51;64.80;;
74470;Laerm;62918;55.706;37.816;2024-01-27T02:43:43;60.47;51.21;67.58;;
74470;Laerm;62918;55.706;37.816;2024-01-27T02:44:13;61.61;53.90;66.00;;
74470;Laerm;62918;55.706;37.816;2024-01-27T02:44:44;58.94;50.79;65.45;;
74470;Laerm;62918;55.706;37.816;2024-01-27T02:45:14;57.84;53.22;62.98;;
74470;Laerm;62918;55.706;37.816;2024-01-27T02:45:45;59.16;54.54;64.54;;
74470;Laerm;62918;55.706;37.816;2024-01-27T02:46:16;58.42;51.95;63.80;;
74470;Laerm;62918;55.706;37.816;2024-01-27T02:46:46;56.98;52.26;66.72;;
74470;Laerm;62918;55.706;37.816;2024-01-27T02:47:17;59.24;53.60;65.50;;
74470;Laerm;62918;55.706;37.816;2024-01-27T02:47:48;59.57;51.79;70.09;;
74470;Laerm;62918;55.706;37.816;2024-01-27T02:48:19;63.61;55.14;75.65;;
74470;Laerm;62918;55.706;37.816;2024-01-27T02:48:49;61.83;52.89;68.77;;
74470;Laerm;62918;55.706;37.816;2024-01-27T02:49:20;59.13;54.89;67.61;;
74470;Laerm;62918;55.706;37.816;2024-01-27T02:49:50;58.30;52.47;66.52;;